sensor_id;sensor_type;location;lat;lon;timestamp;pressure;altitude;pressure_sealevel;temperature;humidity
32109;BME280;18624;50.042;8.436;2023-03-22T00:01:21;99926.78;;;5.74;100.00
32109;BME280;18624;50.042;8.436;2023-03-22T00:03:49;100167.91;;;7.31;100.00
32109;BME280;18624;50.042;8.436;2023-03-22T00:06:16;100152.78;;;7.27;100.00
32109;BME280;18624;50.042;8.436;2023-03-22T00:08:44;100185.94;;;7.52;100.00
32109;BME280;18624;50.042;8.436;2023-03-22T00:11:13;100153.47;;;7.34;100.00
32109;BME280;18624;50.042;8.436;2023-03-22T00:13:39;100087.69;;;6.75;100.00
32109;BME280;18624;50.042;8.436;2023-03-22T00:16:09;100203.22;;;7.69;100.00
32109;BME280;18624;50.042;8.436;2023-03-22T00:18:36;100227.09;;;7.89;100.00
32109;BME280;18624;50.042;8.436;2023-03-22T00:21:02;100154.59;;;7.37;100.00
32109;BME280;18624;50.042;8.436;2023-03-22T00:23:29;100206.25;;;7.75;100.00
32109;BME280;18624;50.042;8.436;2023-03-22T00:25:55;100213.25;;;7.76;100.00
32109;BME280;18624;50.042;8.436;2023-03-22T00:28:22;100240.53;;;8.03;100.00
32109;BME280;18624;50.042;8.436;2023-03-22T00:30:55;100243.19;;;8.06;100.00
32109;BME280;18624;50.042;8.436;2023-03-22T00:33:25;99906.34;;;5.96;100.00
32109;BME280;18624;50.042;8.436;2023-03-22T00:36:00;100165.53;;;7.60;100.00
32109;BME280;18624;50.042;8.436;2023-03-22T00:38:28;100225.22;;;8.09;100.00
32109;BME280;18624;50.042;8.436;2023-03-22T00:41:14;100206.34;;;7.95;100.00
32109;BME280;18624;50.042;8.436;2023-03-22T00:43:43;100114.88;;;7.36;100.00
32109;BME280;18624;50.042;8.436;2023-03-22T00:46:11;99963.50;;;6.23;100.00
32109;BME280;18624;50.042;8.436;2023-03-22T00:48:38;100152.38;;;7.55;100.00
32109;BME280;18624;50.042;8.436;2023-03-22T00:51:05;100219.41;;;8.07;100.00
32109;BME280;18624;50.042;8.436;2023-03-22T00:53:32;100165.09;;;7.66;100.00
32109;BME280;18624;50.042;8.436;2023-03-22T00:55:59;100124.59;;;7.37;100.00
32109;BME280;18624;50.042;8.436;2023-03-22T00:58:30;100179.38;;;7.73;100.00
32109;BME280;18624;50.042;8.436;2023-03-22T01:00:56;100170.84;;;7.71;100.00
32109;BME280;18624;50.042;8.436;2023-03-22T01:03:23;100137.97;;;7.55;100.00
32109;BME280;18624;50.042;8.436;2023-03-22T01:05:51;100208.13;;;8.05;100.00
32109;BME280;18624;50.042;8.436;2023-03-22T01:08:21;100167.59;;;7.80;100.00
32109;BME280;18624;50.042;8.436;2023-03-22T01:10:49;100044.13;;;7.02;100.00
32109;BME280;18624;50.042;8.436;2023-03-22T01:13:16;100137.81;;;7.66;100.00
32109;BME280;18624;50.042;8.436;2023-03-22T01:15:43;99928.03;;;6.30;100.00
32109;BME280;18624;50.042;8.436;2023-03-22T01:18:10;100156.63;;;7.83;100.00
32109;BME280;18624;50.042;8.436;2023-03-22T01:20:37;100016.69;;;6.89;100.00
32109;BME280;18624;50.042;8.436;2023-03-22T01:23:04;100116.91;;;7.55;100.00
32109;BME280;18624;50.042;8.436;2023-03-22T01:25:30;100182.84;;;8.01;100.00
32109;BME280;18624;50.042;8.436;2023-03-22T01:27:57;100114.97;;;7.56;100.00
32109;BME280;18624;50.042;8.436;2023-03-22T01:30:23;100183.06;;;8.10;100.00
32109;BME280;18624;50.042;8.436;2023-03-22T01:32:50;100109.09;;;7.57;100.00
32109;BME280;18624;50.042;8.436;2023-03-22T01:35:17;100063.34;;;7.18;100.00
32109;BME280;18624;50.042;8.436;2023-03-22T01:37:43;100158.34;;;7.97;100.00
32109;BME280;18624;50.042;8.436;2023-03-22T01:40:12;100122.84;;;7.74;100.00
32109;BME280;18624;50.042;8.436;2023-03-22T01:42:39;100169.56;;;8.03;100.00
32109;BME280;18624;50.042;8.436;2023-03-22T01:47:46;100127.16;;;7.75;100.00
32109;BME280;18624;50.042;8.436;2023-03-22T01:50:14;100111.59;;;7.72;100.00
32109;BME280;18624;50.042;8.436;2023-03-22T01:52:44;100166.34;;;8.08;100.00
32109;BME280;18624;50.042;8.436;2023-03-22T01:55:18;100040.59;;;7.28;100.00
32109;BME280;18624;50.042;8.436;2023-03-22T01:57:54;100101.09;;;7.70;100.00
32109;BME280;18624;50.042;8.436;2023-03-22T02:00:33;100121.06;;;7.87;100.00
32109;BME280;18624;50.042;8.436;2023-03-22T02:03:18;100018.06;;;7.24;100.00
32109;BME280;18624;50.042;8.436;2023-03-22T02:05:50;100098.53;;;7.59;100.00
32109;BME280;18624;50.042;8.436;2023-03-22T02:08:20;100152.75;;;8.04;100.00
32109;BME280;18624;50.042;8.436;2023-03-22T02:11:00;100086.84;;;7.59;100.00
32109;BME280;18624;50.042;8.436;2023-03-22T02:33:54;100142.38;;;7.96;100.00
32109;BME280;18624;50.042;8.436;2023-03-22T02:36:40;100114.03;;;7.66;100.00
32109;BME280;18624;50.042;8.436;2023-03-22T02:47:43;100061.53;;;7.35;100.00
32109;BME280;18624;50.042;8.436;2023-03-22T02:52:56;99904.81;;;6.22;100.00
32109;BME280;18624;50.042;8.436;2023-03-22T02:55:36;100002.75;;;6.83;100.00
32109;BME280;18624;50.042;8.436;2023-03-22T02:58:15;100109.91;;;7.54;100.00
32109;BME280;18624;50.042;8.436;2023-03-22T03:00:44;100023.66;;;6.63;100.00
32109;BME280;18624;50.042;8.436;2023-03-22T03:03:14;100110.47;;;7.19;100.00
32109;BME280;18624;50.042;8.436;2023-03-22T03:05:53;100098.03;;;7.18;100.00
32109;BME280;18624;50.042;8.436;2023-03-22T03:08:22;100151.66;;;7.51;100.00
32109;BME280;18624;50.042;8.436;2023-03-22T03:10:51;100010.00;;;6.67;100.00
32109;BME280;18624;50.042;8.436;2023-03-22T03:13:18;100139.09;;;7.57;100.00
32109;BME280;18624;50.042;8.436;2023-03-22T03:15:51;99993.84;;;6.52;100.00
32109;BME280;18624;50.042;8.436;2023-03-22T03:24:02;100068.03;;;7.18;100.00
32109;BME280;18624;50.042;8.436;2023-03-22T03:32:14;100077.25;;;7.00;100.00
32109;BME280;18624;50.042;8.436;2023-03-22T03:34:47;100004.00;;;6.48;100.00
32109;BME280;18624;50.042;8.436;2023-03-22T03:37:19;100124.31;;;7.31;100.00
32109;BME280;18624;50.042;8.436;2023-03-22T03:40:03;100106.19;;;7.18;100.00
32109;BME280;18624;50.042;8.436;2023-03-22T03:42:36;100011.63;;;6.60;100.00
32109;BME280;18624;50.042;8.436;2023-03-22T03:45:04;100093.00;;;7.16;100.00
32109;BME280;18624;50.042;8.436;2023-03-22T03:47:33;100060.59;;;6.95;100.00
32109;BME280;18624;50.042;8.436;2023-03-22T03:49:59;100036.06;;;6.68;100.00
32109;BME280;18624;50.042;8.436;2023-03-22T03:52:26;99947.69;;;6.15;100.00
32109;BME280;18624;50.042;8.436;2023-03-22T03:54:54;100038.31;;;6.73;100.00
32109;BME280;18624;50.042;8.436;2023-03-22T03:57:26;100000.16;;;6.46;100.00
32109;BME280;18624;50.042;8.436;2023-03-22T03:59:53;100057.19;;;6.87;100.00
32109;BME280;18624;50.042;8.436;2023-03-22T04:02:40;100040.66;;;6.71;100.00
32109;BME280;18624;50.042;8.436;2023-03-22T04:05:13;100015.88;;;6.62;100.00
32109;BME280;18624;50.042;8.436;2023-03-22T04:07:40;100098.44;;;7.16;100.00
32109;BME280;18624;50.042;8.436;2023-03-22T04:10:07;100038.66;;;6.75;100.00
32109;BME280;18624;50.042;8.436;2023-03-22T04:12:33;100073.06;;;6.92;100.00
32109;BME280;18624;50.042;8.436;2023-03-22T04:15:10;100092.34;;;7.05;100.00
32109;BME280;18624;50.042;8.436;2023-03-22T04:17:38;100117.16;;;7.14;100.00
32109;BME280;18624;50.042;8.436;2023-03-22T04:20:07;100062.69;;;6.83;100.00
32109;BME280;18624;50.042;8.436;2023-03-22T04:22:37;99906.53;;;5.78;100.00
32109;BME280;18624;50.042;8.436;2023-03-22T04:25:08;99963.56;;;6.20;100.00
32109;BME280;18624;50.042;8.436;2023-03-22T04:27:41;100093.25;;;6.98;100.00
32109;BME280;18624;50.042;8.436;2023-03-22T04:30:12;99970.53;;;6.21;100.00
32109;BME280;18624;50.042;8.436;2023-03-22T04:33:05;100006.41;;;6.43;100.00
32109;BME280;18624;50.042;8.436;2023-03-22T04:36:06;100028.88;;;6.50;100.00
32109;BME280;18624;50.042;8.436;2023-03-22T04:38:46;100010.28;;;6.45;100.00
32109;BME280;18624;50.042;8.436;2023-03-22T04:41:18;100011.81;;;6.46;100.00
32109;BME280;18624;50.042;8.436;2023-03-22T04:43:48;99973.72;;;6.16;100.00
32109;BME280;18624;50.042;8.436;2023-03-22T04:46:16;99950.59;;;6.00;100.00
32109;BME280;18624;50.042;8.436;2023-03-22T04:48:48;100058.31;;;6.63;100.00
32109;BME280;18624;50.042;8.436;2023-03-22T04:51:16;100029.63;;;6.54;100.00
32109;BME280;18624;50.042;8.436;2023-03-22T04:54:00;99866.81;;;5.16;100.00
32109;BME280;18624;50.042;8.436;2023-03-22T04:56:26;100001.69;;;6.16;100.00
32109;BME280;18624;50.042;8.436;2023-03-22T04:58:53;99995.59;;;6.08;100.00
32109;BME280;18624;50.042;8.436;2023-03-22T05:01:19;100063.34;;;6.64;100.00
32109;BME280;18624;50.042;8.436;2023-03-22T05:03:53;100001.34;;;6.14;100.00
32109;BME280;18624;50.042;8.436;2023-03-22T05:06:21;100076.25;;;6.87;100.00
32109;BME280;18624;50.042;8.436;2023-03-22T05:09:00;100013.06;;;6.42;100.00
32109;BME280;18624;50.042;8.436;2023-03-22T05:11:27;100021.97;;;6.42;100.00
32109;BME280;18624;50.042;8.436;2023-03-22T05:14:10;100076.72;;;6.82;100.00
32109;BME280;18624;50.042;8.436;2023-03-22T05:16:37;100006.66;;;6.25;100.00
32109;BME280;18624;50.042;8.436;2023-03-22T05:19:07;100080.28;;;6.75;100.00
32109;BME280;18624;50.042;8.436;2023-03-22T05:21:42;99927.22;;;5.69;100.00
32109;BME280;18624;50.042;8.436;2023-03-22T05:24:09;100091.16;;;6.79;100.00
32109;BME280;18624;50.042;8.436;2023-03-22T05:26:37;100072.22;;;6.68;100.00
32109;BME280;18624;50.042;8.436;2023-03-22T05:29:09;100092.72;;;6.80;100.00
32109;BME280;18624;50.042;8.436;2023-03-22T05:31:49;100018.75;;;6.20;100.00
32109;BME280;18624;50.042;8.436;2023-03-22T05:34:15;99971.59;;;6.00;100.00
32109;BME280;18624;50.042;8.436;2023-03-22T05:36:42;100013.31;;;6.20;100.00
32109;BME280;18624;50.042;8.436;2023-03-22T05:39:17;99950.38;;;5.80;100.00
32109;BME280;18624;50.042;8.436;2023-03-22T05:41:44;100003.31;;;6.10;100.00
32109;BME280;18624;50.042;8.436;2023-03-22T05:44:11;99943.41;;;5.79;100.00
32109;BME280;18624;50.042;8.436;2023-03-22T05:46:44;100027.47;;;6.39;100.00
32109;BME280;18624;50.042;8.436;2023-03-22T05:49:26;100051.03;;;6.52;100.00
32109;BME280;18624;50.042;8.436;2023-03-22T05:51:53;100089.59;;;6.78;100.00
32109;BME280;18624;50.042;8.436;2023-03-22T05:54:23;99968.03;;;6.03;100.00
32109;BME280;18624;50.042;8.436;2023-03-22T05:56:49;100049.91;;;6.50;100.00
32109;BME280;18624;50.042;8.436;2023-03-22T05:59:19;99989.75;;;6.06;100.00
32109;BME280;18624;50.042;8.436;2023-03-22T06:01:46;100043.03;;;6.38;100.00
32109;BME280;18624;50.042;8.436;2023-03-22T06:04:18;99943.53;;;5.69;100.00
32109;BME280;18624;50.042;8.436;2023-03-22T06:06:58;99886.44;;;5.31;100.00
32109;BME280;18624;50.042;8.436;2023-03-22T06:09:34;99915.47;;;5.41;100.00
32109;BME280;18624;50.042;8.436;2023-03-22T06:12:04;100062.50;;;6.37;100.00
32109;BME280;18624;50.042;8.436;2023-03-22T06:14:31;100080.66;;;6.47;100.00
32109;BME280;18624;50.042;8.436;2023-03-22T06:17:23;100030.56;;;6.06;100.00
32109;BME280;18624;50.042;8.436;2023-03-22T06:19:51;100037.06;;;6.16;100.00
32109;BME280;18624;50.042;8.436;2023-03-22T06:22:19;100087.06;;;6.64;100.00
32109;BME280;18624;50.042;8.436;2023-03-22T06:24:47;99904.03;;;5.57;100.00
32109;BME280;18624;50.042;8.436;2023-03-22T06:27:20;99818.09;;;4.98;100.00
32109;BME280;18624;50.042;8.436;2023-03-22T06:29:47;100005.88;;;6.24;100.00
32109;BME280;18624;50.042;8.436;2023-03-22T06:32:20;100026.59;;;6.49;100.00
32109;BME280;18624;50.042;8.436;2023-03-22T06:34:55;99995.72;;;6.28;100.00
32109;BME280;18624;50.042;8.436;2023-03-22T06:37:22;100098.31;;;6.96;100.00
32109;BME280;18624;50.042;8.436;2023-03-22T06:39:49;99813.69;;;5.12;100.00
32109;BME280;18624;50.042;8.436;2023-03-22T06:42:18;99916.91;;;5.87;100.00
32109;BME280;18624;50.042;8.436;2023-03-22T06:44:51;100051.84;;;6.80;100.00
32109;BME280;18624;50.042;8.436;2023-03-22T06:47:27;100020.69;;;6.54;100.00
32109;BME280;18624;50.042;8.436;2023-03-22T06:50:00;100095.38;;;7.10;100.00
32109;BME280;18624;50.042;8.436;2023-03-22T06:52:46;99833.50;;;5.46;100.00
32109;BME280;18624;50.042;8.436;2023-03-22T06:55:13;99974.38;;;6.27;100.00
32109;BME280;18624;50.042;8.436;2023-03-22T06:57:54;99980.09;;;6.63;100.00
32109;BME280;18624;50.042;8.436;2023-03-22T07:01:15;100061.69;;;7.24;100.00
32109;BME280;18624;50.042;8.436;2023-03-22T07:04:35;100123.28;;;7.72;100.00
32109;BME280;18624;50.042;8.436;2023-03-22T07:07:37;100043.56;;;7.14;100.00
32109;BME280;18624;50.042;8.436;2023-03-22T07:10:37;100125.41;;;7.84;100.00
32109;BME280;18624;50.042;8.436;2023-03-22T07:14:00;100062.97;;;7.43;100.00
32109;BME280;18624;50.042;8.436;2023-03-22T07:17:33;100123.25;;;7.96;100.00
32109;BME280;18624;50.042;8.436;2023-03-22T07:20:54;100088.09;;;7.78;100.00
32109;BME280;18624;50.042;8.436;2023-03-22T07:24:18;100125.34;;;8.11;100.00
32109;BME280;18624;50.042;8.436;2023-03-22T07:27:40;100122.13;;;8.17;100.00
32109;BME280;18624;50.042;8.436;2023-03-22T07:31:01;100113.50;;;8.18;100.00
32109;BME280;18624;50.042;8.436;2023-03-22T07:34:04;99974.31;;;7.12;100.00
32109;BME280;18624;50.042;8.436;2023-03-22T07:36:39;100093.34;;;8.12;100.00
32109;BME280;18624;50.042;8.436;2023-03-22T07:39:08;100087.53;;;8.10;100.00
32109;BME280;18624;50.042;8.436;2023-03-22T07:41:40;99997.75;;;7.52;100.00
32109;BME280;18624;50.042;8.436;2023-03-22T07:44:26;100078.56;;;8.09;100.00
32109;BME280;18624;50.042;8.436;2023-03-22T07:47:16;100042.59;;;7.95;100.00
32109;BME280;18624;50.042;8.436;2023-03-22T07:50:12;100002.53;;;7.68;100.00
32109;BME280;18624;50.042;8.436;2023-03-22T07:52:40;100013.25;;;7.79;100.00
32109;BME280;18624;50.042;8.436;2023-03-22T07:55:08;99888.41;;;7.03;100.00
32109;BME280;18624;50.042;8.436;2023-03-22T07:57:35;100100.66;;;8.58;100.00
32109;BME280;18624;50.042;8.436;2023-03-22T08:00:04;100100.88;;;8.68;100.00
32109;BME280;18624;50.042;8.436;2023-03-22T08:03:03;100040.44;;;8.26;100.00
32109;BME280;18624;50.042;8.436;2023-03-22T08:05:54;100037.91;;;8.35;100.00
32109;BME280;18624;50.042;8.436;2023-03-22T08:08:24;99960.06;;;7.87;100.00
32109;BME280;18624;50.042;8.436;2023-03-22T08:10:51;100084.94;;;8.82;100.00
32109;BME280;18624;50.042;8.436;2023-03-22T08:13:18;100079.97;;;8.77;100.00
32109;BME280;18624;50.042;8.436;2023-03-22T08:15:44;100096.19;;;9.04;100.00
32109;BME280;18624;50.042;8.436;2023-03-22T08:18:11;100113.38;;;9.21;100.00
32109;BME280;18624;50.042;8.436;2023-03-22T08:20:39;100107.25;;;9.33;100.00
32109;BME280;18624;50.042;8.436;2023-03-22T08:23:12;100064.06;;;9.08;100.00
32109;BME280;18624;50.042;8.436;2023-03-22T08:26:01;100081.00;;;9.36;100.00
32109;BME280;18624;50.042;8.436;2023-03-22T08:28:28;100096.59;;;9.55;100.00
32109;BME280;18624;50.042;8.436;2023-03-22T08:30:54;100103.47;;;9.76;100.00
32109;BME280;18624;50.042;8.436;2023-03-22T08:33:21;99835.09;;;7.98;100.00
32109;BME280;18624;50.042;8.436;2023-03-22T08:35:49;100100.81;;;9.89;100.00
32109;BME280;18624;50.042;8.436;2023-03-22T08:38:16;100092.34;;;10.00;100.00
32109;BME280;18624;50.042;8.436;2023-03-22T08:40:48;99994.44;;;9.46;100.00
32109;BME280;18624;50.042;8.436;2023-03-22T08:43:19;100052.13;;;9.97;100.00
32109;BME280;18624;50.042;8.436;2023-03-22T08:45:46;100051.06;;;10.07;100.00
32109;BME280;18624;50.042;8.436;2023-03-22T08:48:15;100012.53;;;9.85;100.00
32109;BME280;18624;50.042;8.436;2023-03-22T08:51:05;100048.69;;;10.22;100.00
32109;BME280;18624;50.042;8.436;2023-03-22T08:53:47;100051.03;;;10.23;100.00
32109;BME280;18624;50.042;8.436;2023-03-22T08:56:40;100067.44;;;10.52;100.00
32109;BME280;18624;50.042;8.436;2023-03-22T08:59:17;99990.81;;;10.07;100.00
32109;BME280;18624;50.042;8.436;2023-03-22T09:01:58;100026.56;;;10.45;100.00
32109;BME280;18624;50.042;8.436;2023-03-22T09:04:25;100077.34;;;10.75;100.00
32109;BME280;18624;50.042;8.436;2023-03-22T09:06:52;100010.53;;;10.44;100.00
32109;BME280;18624;50.042;8.436;2023-03-22T09:09:19;99997.50;;;10.48;100.00
32109;BME280;18624;50.042;8.436;2023-03-22T09:11:48;100049.72;;;10.82;100.00
32109;BME280;18624;50.042;8.436;2023-03-22T09:14:15;99931.78;;;10.06;100.00
32109;BME280;18624;50.042;8.436;2023-03-22T09:16:42;99906.56;;;9.98;100.00
32109;BME280;18624;50.042;8.436;2023-03-22T09:19:09;99816.81;;;9.38;100.00
32109;BME280;18624;50.042;8.436;2023-03-22T09:21:35;99934.22;;;10.17;100.00
32109;BME280;18624;50.042;8.436;2023-03-22T09:24:28;99934.34;;;10.26;100.00
32109;BME280;18624;50.042;8.436;2023-03-22T09:26:58;99884.56;;;9.89;100.00
32109;BME280;18624;50.042;8.436;2023-03-22T09:29:24;99986.13;;;10.75;100.00
32109;BME280;18624;50.042;8.436;2023-03-22T09:31:51;99944.88;;;10.53;100.00
32109;BME280;18624;50.042;8.436;2023-03-22T09:34:22;99879.00;;;10.18;100.00
32109;BME280;18624;50.042;8.436;2023-03-22T09:36:51;99987.53;;;10.92;100.00
32109;BME280;18624;50.042;8.436;2023-03-22T09:39:21;99952.09;;;10.85;100.00
32109;BME280;18624;50.042;8.436;2023-03-22T09:41:55;99996.41;;;11.22;100.00
32109;BME280;18624;50.042;8.436;2023-03-22T09:44:42;100025.41;;;11.57;100.00
32109;BME280;18624;50.042;8.436;2023-03-22T09:47:19;100023.94;;;11.65;100.00
32109;BME280;18624;50.042;8.436;2023-03-22T09:49:49;100033.16;;;11.72;100.00
32109;BME280;18624;50.042;8.436;2023-03-22T09:52:20;99991.94;;;11.50;100.00
32109;BME280;18624;50.042;8.436;2023-03-22T09:54:50;99962.00;;;11.30;100.00
32109;BME280;18624;50.042;8.436;2023-03-22T09:57:37;99898.94;;;10.95;100.00
32109;BME280;18624;50.042;8.436;2023-03-22T10:00:21;100011.19;;;11.72;100.00
32109;BME280;18624;50.042;8.436;2023-03-22T10:05:41;99977.72;;;11.64;100.00
32109;BME280;18624;50.042;8.436;2023-03-22T10:08:26;100007.28;;;11.95;100.00
32109;BME280;18624;50.042;8.436;2023-03-22T10:11:01;99926.84;;;11.50;100.00
32109;BME280;18624;50.042;8.436;2023-03-22T10:13:38;100004.31;;;12.11;100.00
32109;BME280;18624;50.042;8.436;2023-03-22T10:16:11;99724.66;;;10.25;100.00
32109;BME280;18624;50.042;8.436;2023-03-22T10:18:44;100000.06;;;12.10;100.00
32109;BME280;18624;50.042;8.436;2023-03-22T10:21:14;99960.00;;;12.00;100.00
32109;BME280;18624;50.042;8.436;2023-03-22T10:23:49;99905.06;;;11.78;100.00
32109;BME280;18624;50.042;8.436;2023-03-22T10:26:21;99849.75;;;11.57;100.00
32109;BME280;18624;50.042;8.436;2023-03-22T10:29:00;99978.50;;;12.30;100.00
32109;BME280;18624;50.042;8.436;2023-03-22T10:31:32;99768.72;;;11.22;100.00
32109;BME280;18624;50.042;8.436;2023-03-22T10:34:26;99956.16;;;12.50;99.27
32109;BME280;18624;50.042;8.436;2023-03-22T10:36:54;99938.13;;;12.49;99.54
32109;BME280;18624;50.042;8.436;2023-03-22T10:41:59;99888.03;;;12.45;96.80
32109;BME280;18624;50.042;8.436;2023-03-22T10:44:29;99989.41;;;13.24;93.52
32109;BME280;18624;50.042;8.436;2023-03-22T10:47:00;99968.88;;;13.06;90.97
32109;BME280;18624;50.042;8.436;2023-03-22T10:49:37;99998.16;;;13.31;89.31
32109;BME280;18624;50.042;8.436;2023-03-22T10:52:21;99944.66;;;12.83;89.49
32109;BME280;18624;50.042;8.436;2023-03-22T10:54:53;99966.59;;;13.14;92.21
32109;BME280;18624;50.042;8.436;2023-03-22T10:57:24;99923.44;;;12.83;91.09
32109;BME280;18624;50.042;8.436;2023-03-22T10:59:57;99993.59;;;13.37;90.12
32109;BME280;18624;50.042;8.436;2023-03-22T11:02:29;99854.19;;;12.66;85.74
32109;BME280;18624;50.042;8.436;2023-03-22T11:05:02;99984.72;;;13.61;82.43
32109;BME280;18624;50.042;8.436;2023-03-22T11:07:38;99978.75;;;13.62;84.93
32109;BME280;18624;50.042;8.436;2023-03-22T11:12:35;99899.97;;;13.28;85.07
32109;BME280;18624;50.042;8.436;2023-03-22T11:15:05;99964.50;;;13.73;79.36
32109;BME280;18624;50.042;8.436;2023-03-22T11:17:36;99799.81;;;12.71;78.08
32109;BME280;18624;50.042;8.436;2023-03-22T11:20:05;99868.75;;;13.13;79.30
32109;BME280;18624;50.042;8.436;2023-03-22T11:22:40;99970.16;;;13.97;79.13
32109;BME280;18624;50.042;8.436;2023-03-22T11:25:19;99972.28;;;14.02;80.38
32109;BME280;18624;50.042;8.436;2023-03-22T11:30:30;99984.56;;;14.01;76.63
32109;BME280;18624;50.042;8.436;2023-03-22T11:33:14;99901.34;;;13.60;76.72
32109;BME280;18624;50.042;8.436;2023-03-22T11:35:44;99947.19;;;13.91;75.33
32109;BME280;18624;50.042;8.436;2023-03-22T11:38:38;99961.72;;;14.10;72.27
32109;BME280;18624;50.042;8.436;2023-03-22T11:41:07;99955.28;;;14.13;71.04
32109;BME280;18624;50.042;8.436;2023-03-22T11:43:41;99962.78;;;14.12;71.94
32109;BME280;18624;50.042;8.436;2023-03-22T11:46:14;99954.06;;;14.14;71.88
32109;BME280;18624;50.042;8.436;2023-03-22T11:48:45;99950.22;;;14.21;70.99
32109;BME280;18624;50.042;8.436;2023-03-22T11:51:35;99949.91;;;14.28;69.27
32109;BME280;18624;50.042;8.436;2023-03-22T11:54:11;99868.28;;;13.70;71.05
32109;BME280;18624;50.042;8.436;2023-03-22T11:56:41;99592.25;;;11.83;70.49
32109;BME280;18624;50.042;8.436;2023-03-22T11:59:22;99947.25;;;14.33;70.54
32109;BME280;18624;50.042;8.436;2023-03-22T12:02:28;99946.63;;;14.38;68.27
32109;BME280;18624;50.042;8.436;2023-03-22T12:05:11;99905.03;;;14.18;69.23
32109;BME280;18624;50.042;8.436;2023-03-22T12:07:40;99851.75;;;13.79;67.39
32109;BME280;18624;50.042;8.436;2023-03-22T12:11:00;99949.34;;;14.48;68.42
32109;BME280;18624;50.042;8.436;2023-03-22T12:13:49;99937.13;;;14.49;67.67
32109;BME280;18624;50.042;8.436;2023-03-22T12:16:20;99886.81;;;14.21;67.75
32109;BME280;18624;50.042;8.436;2023-03-22T12:21:48;99879.44;;;14.27;67.43
32109;BME280;18624;50.042;8.436;2023-03-22T12:24:24;99935.22;;;14.64;68.69
32109;BME280;18624;50.042;8.436;2023-03-22T12:26:55;99894.38;;;14.44;68.64
32109;BME280;18624;50.042;8.436;2023-03-22T12:29:23;99906.03;;;14.48;65.94
32109;BME280;18624;50.042;8.436;2023-03-22T12:34:33;99768.22;;;13.63;65.93
32109;BME280;18624;50.042;8.436;2023-03-22T12:37:01;99913.41;;;14.75;66.39
32109;BME280;18624;50.042;8.436;2023-03-22T12:39:42;99914.91;;;14.76;67.27
32109;BME280;18624;50.042;8.436;2023-03-22T12:42:22;99816.78;;;14.27;64.88
32109;BME280;18624;50.042;8.436;2023-03-22T12:44:56;99904.59;;;14.86;64.54
32109;BME280;18624;50.042;8.436;2023-03-22T12:47:37;99794.19;;;14.23;63.82
32109;BME280;18624;50.042;8.436;2023-03-22T12:50:18;99890.28;;;14.97;64.05
32109;BME280;18624;50.042;8.436;2023-03-22T12:52:49;99829.69;;;14.54;62.46
32109;BME280;18624;50.042;8.436;2023-03-22T12:55:25;99853.19;;;14.74;62.24
32109;BME280;18624;50.042;8.436;2023-03-22T12:57:53;99887.69;;;14.93;63.07
32109;BME280;18624;50.042;8.436;2023-03-22T13:00:32;99781.16;;;14.24;64.57
32109;BME280;18624;50.042;8.436;2023-03-22T13:05:43;99614.69;;;13.25;62.18
32109;BME280;18624;50.042;8.436;2023-03-22T13:08:10;99867.47;;;15.11;60.33
32109;BME280;18624;50.042;8.436;2023-03-22T13:10:40;99873.59;;;15.15;61.19
32109;BME280;18624;50.042;8.436;2023-03-22T13:21:23;99869.13;;;15.17;58.90
32109;BME280;18624;50.042;8.436;2023-03-22T13:23:57;99867.91;;;15.18;58.22
32109;BME280;18624;50.042;8.436;2023-03-22T13:29:09;99858.94;;;15.09;58.70
32109;BME280;18624;50.042;8.436;2023-03-22T13:34:03;99840.56;;;14.82;59.74
32109;BME280;18624;50.042;8.436;2023-03-22T13:36:37;99808.34;;;14.88;59.96
32109;BME280;18624;50.042;8.436;2023-03-22T13:39:08;99561.78;;;13.21;60.81
32109;BME280;18624;50.042;8.436;2023-03-22T13:41:35;99826.00;;;14.81;62.20
32109;BME280;18624;50.042;8.436;2023-03-22T13:44:18;99729.53;;;14.24;61.59
32109;BME280;18624;50.042;8.436;2023-03-22T13:46:49;99575.09;;;13.13;59.81
32109;BME280;18624;50.042;8.436;2023-03-22T13:51:47;99806.75;;;14.72;60.67
32109;BME280;18624;50.042;8.436;2023-03-22T13:54:19;99844.22;;;15.03;61.56
32109;BME280;18624;50.042;8.436;2023-03-22T13:56:53;99841.78;;;15.05;61.21
32109;BME280;18624;50.042;8.436;2023-03-22T14:02:16;99814.41;;;14.77;62.28
32109;BME280;18624;50.042;8.436;2023-03-22T14:09:55;99808.09;;;14.77;62.17
32109;BME280;18624;50.042;8.436;2023-03-22T14:15:15;99833.84;;;14.98;62.62
32109;BME280;18624;50.042;8.436;2023-03-22T14:17:46;99832.03;;;14.94;62.60
32109;BME280;18624;50.042;8.436;2023-03-22T14:20:18;99711.56;;;14.05;63.37
32109;BME280;18624;50.042;8.436;2023-03-22T14:23:16;99824.41;;;14.89;64.92
32109;BME280;18624;50.042;8.436;2023-03-22T14:25:44;99813.91;;;14.79;64.65
32109;BME280;18624;50.042;8.436;2023-03-22T14:28:17;99797.72;;;14.72;64.50
32109;BME280;18624;50.042;8.436;2023-03-22T14:30:43;99824.13;;;14.87;65.31
32109;BME280;18624;50.042;8.436;2023-03-22T14:33:16;99652.38;;;13.76;64.08
32109;BME280;18624;50.042;8.436;2023-03-22T14:35:53;99568.66;;;13.26;64.49
32109;BME280;18624;50.042;8.436;2023-03-22T14:38:22;99751.75;;;14.44;64.59
32109;BME280;18624;50.042;8.436;2023-03-22T14:41:05;99679.53;;;13.92;65.38
32109;BME280;18624;50.042;8.436;2023-03-22T14:43:30;99749.00;;;14.44;63.98
32109;BME280;18624;50.042;8.436;2023-03-22T14:48:30;99816.25;;;14.95;62.44
32109;BME280;18624;50.042;8.436;2023-03-22T14:50:56;99651.72;;;13.81;60.04
32109;BME280;18624;50.042;8.436;2023-03-22T14:53:33;99793.94;;;14.84;59.90
32109;BME280;18624;50.042;8.436;2023-03-22T14:56:04;99763.47;;;14.63;60.71
32109;BME280;18624;50.042;8.436;2023-03-22T14:58:34;99797.19;;;14.82;61.92
32109;BME280;18624;50.042;8.436;2023-03-22T15:01:06;99805.09;;;14.89;61.53
32109;BME280;18624;50.042;8.436;2023-03-22T15:03:32;99810.16;;;14.91;61.00